createdAt,value
2018-12-19T00:02:27.359Z,23.55
2018-12-19T00:04:55.175Z,23.73
2018-12-19T00:07:22.750Z,24.60
2018-12-19T00:09:50.343Z,24.92
2018-12-19T00:12:18.035Z,22.65
2018-12-19T00:14:45.626Z,24.17
2018-12-19T00:17:13.199Z,23.07
2018-12-19T00:19:40.791Z,26.12
2018-12-19T00:22:08.345Z,25.25
2018-12-19T00:24:35.935Z,28.57
2018-12-19T00:27:03.503Z,26.20
2018-12-19T00:29:31.091Z,23.87
2018-12-19T00:31:58.658Z,26.00
2018-12-19T00:34:26.246Z,25.40
2018-12-19T00:36:53.803Z,26.15
2018-12-19T00:39:21.406Z,27.50
2018-12-19T00:41:48.966Z,27.15
2018-12-19T00:44:16.575Z,24.27
2018-12-19T00:46:44.138Z,27.07
2018-12-19T00:49:11.722Z,28.75
2018-12-19T00:51:39.311Z,27.60
2018-12-19T00:54:06.882Z,27.58
2018-12-19T00:56:34.473Z,26.95
2018-12-19T00:59:02.039Z,26.68
2018-12-19T01:01:29.625Z,25.32
2018-12-19T01:03:57.187Z,25.90
2018-12-19T01:06:24.887Z,25.88
2018-12-19T01:08:52.446Z,24.70
2018-12-19T01:11:20.047Z,25.88
2018-12-19T01:13:47.622Z,26.45
2018-12-19T01:16:15.210Z,25.25
2018-12-19T01:18:42.773Z,24.03
2018-12-19T01:21:10.370Z,25.62
2018-12-19T01:23:37.933Z,25.85
2018-12-19T01:26:05.521Z,25.17
2018-12-19T01:28:33.087Z,26.15
2018-12-19T01:31:00.742Z,25.43
2018-12-19T01:33:28.307Z,25.50
2018-12-19T01:35:55.907Z,28.60
2018-12-19T01:38:23.506Z,27.58
2018-12-19T01:40:51.070Z,26.93
2018-12-19T01:43:18.663Z,30.45
2018-12-19T01:45:46.235Z,30.02
2018-12-19T01:48:13.831Z,31.45
2018-12-19T01:50:41.398Z,30.62
2018-12-19T01:53:08.987Z,29.57
2018-12-19T01:55:36.562Z,30.68
2018-12-19T01:58:04.155Z,31.23
2018-12-19T02:00:31.731Z,29.07
2018-12-19T02:02:59.322Z,28.17
2018-12-19T02:05:26.899Z,27.75
2018-12-19T02:07:54.491Z,30.65
2018-12-19T02:10:22.055Z,29.57
2018-12-19T02:12:49.655Z,30.43
2018-12-19T02:15:17.223Z,27.10
2018-12-19T02:17:44.818Z,27.50
2018-12-19T02:20:12.495Z,26.70
2018-12-19T02:22:40.762Z,28.73
2018-12-19T02:25:08.443Z,28.52
2018-12-19T02:27:36.011Z,29.57
2018-12-19T02:30:04.944Z,26.77
2018-12-19T02:32:32.510Z,28.42
2018-12-19T02:35:00.104Z,28.38
2018-12-19T02:37:27.668Z,29.27
2018-12-19T02:39:55.335Z,29.63
2018-12-19T02:42:22.905Z,27.35
2018-12-19T02:44:50.504Z,28.15
2018-12-19T02:47:18.087Z,28.47
2018-12-19T02:49:45.679Z,28.10
2018-12-19T02:52:14.186Z,27.73
2018-12-19T02:54:41.775Z,27.77
2018-12-19T02:57:09.350Z,29.07
2018-12-19T02:59:36.939Z,27.82
2018-12-19T03:02:05.385Z,28.73
2018-12-19T03:04:32.978Z,28.37
2018-12-19T03:07:00.554Z,28.07
2018-12-19T03:09:28.147Z,32.40
2018-12-19T03:11:55.719Z,29.15
2018-12-19T03:14:23.328Z,30.65
2018-12-19T03:16:50.895Z,30.20
2018-12-19T03:19:18.495Z,28.60
2018-12-19T03:21:46.064Z,30.93
2018-12-19T03:24:13.778Z,30.88
2018-12-19T03:26:41.459Z,30.52
2018-12-19T03:29:09.124Z,29.75
2018-12-19T03:31:36.725Z,28.95
2018-12-19T03:34:04.395Z,30.72
2018-12-19T03:36:32.001Z,29.42
2018-12-19T03:38:59.619Z,29.82
2018-12-19T03:41:27.431Z,29.70
2018-12-19T03:43:55.006Z,27.70
2018-12-19T03:46:22.598Z,29.98
2018-12-19T03:48:56.469Z,30.90
2018-12-19T03:51:24.763Z,27.45
2018-12-19T03:53:52.329Z,27.48
2018-12-19T03:56:19.930Z,26.23
2018-12-19T03:58:47.519Z,26.70
2018-12-19T04:01:15.238Z,24.60
2018-12-19T04:03:42.809Z,25.12
2018-12-19T04:06:10.405Z,24.20
2018-12-19T04:08:38.029Z,25.00
2018-12-19T04:11:05.606Z,27.77
2018-12-19T04:13:33.195Z,23.02
2018-12-19T04:16:00.771Z,24.75
2018-12-19T04:18:28.371Z,23.38
2018-12-19T04:20:55.945Z,24.80
2018-12-19T04:23:23.547Z,22.90
2018-12-19T04:25:51.123Z,22.42
2018-12-19T04:28:18.714Z,23.73
2018-12-19T04:30:46.278Z,22.00
2018-12-19T04:33:13.879Z,20.90
2018-12-19T04:35:41.765Z,21.10
2018-12-19T04:38:09.361Z,21.23
2018-12-19T04:40:36.940Z,20.75
2018-12-19T04:43:04.530Z,20.90
2018-12-19T04:45:32.098Z,22.30
2018-12-19T04:47:59.699Z,20.72
2018-12-19T04:50:27.278Z,20.88
2018-12-19T04:52:54.890Z,20.15
2018-12-19T04:55:22.484Z,19.27
2018-12-19T04:57:50.067Z,18.85
2018-12-19T05:00:17.651Z,20.25
2018-12-19T05:02:45.210Z,18.42
2018-12-19T05:05:12.915Z,19.43
2018-12-19T05:07:40.798Z,18.85
2018-12-19T05:10:12.266Z,19.17
2018-12-19T05:12:38.111Z,18.77
2018-12-19T05:15:06.145Z,18.73
2018-12-19T05:17:33.726Z,18.82
2018-12-19T05:20:01.315Z,18.10
2018-12-19T05:22:28.870Z,19.13
2018-12-19T05:24:56.466Z,18.82
2018-12-19T05:27:24.032Z,18.45
2018-12-19T05:29:51.627Z,18.10
2018-12-19T05:32:19.186Z,18.05
2018-12-19T05:34:46.783Z,17.37
2018-12-19T05:37:14.368Z,17.50
2018-12-19T05:39:41.927Z,16.97
2018-12-19T05:42:09.562Z,16.02
2018-12-19T05:44:37.221Z,15.93
2018-12-19T05:47:04.815Z,16.65
2018-12-19T05:49:32.707Z,16.50
2018-12-19T05:52:00.303Z,15.90
2018-12-19T05:54:28.018Z,15.32
2018-12-19T05:56:55.618Z,15.70
2018-12-19T05:59:23.187Z,14.55
2018-12-19T06:01:50.776Z,14.40
2018-12-19T06:04:18.334Z,14.35
2018-12-19T06:06:45.934Z,14.70
2018-12-19T06:09:13.495Z,14.35
2018-12-19T06:11:41.078Z,14.18
2018-12-19T06:14:08.634Z,14.10
2018-12-19T06:16:36.227Z,14.25
2018-12-19T06:19:03.791Z,14.73
2018-12-19T06:21:32.264Z,15.18
2018-12-19T06:24:00.046Z,14.03
2018-12-19T06:26:27.610Z,14.18
2018-12-19T06:28:55.198Z,14.30
2018-12-19T06:31:22.754Z,13.62
2018-12-19T06:33:51.064Z,13.55
2018-12-19T06:36:18.627Z,13.78
2018-12-19T06:38:46.217Z,13.58
2018-12-19T06:41:13.781Z,13.05
2018-12-19T06:43:41.797Z,13.30
2018-12-19T06:46:09.358Z,13.43
2018-12-19T06:48:36.947Z,14.03
2018-12-19T06:51:04.520Z,12.82
2018-12-19T06:53:32.430Z,12.93
2018-12-19T06:55:59.997Z,13.35
2018-12-19T06:58:27.578Z,12.37
2018-12-19T07:00:55.239Z,12.90
2018-12-19T07:03:22.823Z,11.57
2018-12-19T07:05:50.410Z,11.78
2018-12-19T07:08:17.983Z,11.83
2018-12-19T07:10:45.579Z,13.10
2018-12-19T07:13:13.141Z,11.20
2018-12-19T07:15:40.739Z,12.43
2018-12-19T07:18:08.303Z,11.73
2018-12-19T07:20:35.902Z,12.35
2018-12-19T07:23:03.459Z,12.07
2018-12-19T07:25:31.051Z,12.90
2018-12-19T07:27:58.615Z,12.60
2018-12-19T07:30:26.217Z,12.43
2018-12-19T07:32:53.785Z,12.95
2018-12-19T07:35:21.370Z,13.22
2018-12-19T07:37:48.927Z,13.45
2018-12-19T07:40:16.516Z,12.67
2018-12-19T07:42:44.091Z,12.45
2018-12-19T07:45:11.798Z,12.18
2018-12-19T07:47:39.367Z,11.28
2018-12-19T07:50:06.926Z,12.05
2018-12-19T07:52:35.696Z,10.90
2018-12-19T07:55:03.490Z,11.00
2018-12-19T07:57:31.085Z,11.30
2018-12-19T07:59:58.654Z,12.65
2018-12-19T08:02:26.282Z,11.73
2018-12-19T08:04:53.842Z,9.83
2018-12-19T08:07:21.430Z,11.40
2018-12-19T08:09:49.035Z,11.68
2018-12-19T08:12:16.616Z,10.28
2018-12-19T08:14:44.174Z,10.60
2018-12-19T08:17:11.762Z,10.17
2018-12-19T08:19:39.332Z,10.53
2018-12-19T08:22:06.923Z,10.75
2018-12-19T08:24:34.482Z,10.50
2018-12-19T08:27:02.068Z,10.53
2018-12-19T08:29:29.636Z,10.88
2018-12-19T08:31:57.227Z,10.45
2018-12-19T08:34:24.807Z,9.43
2018-12-19T08:36:52.482Z,10.48
2018-12-19T08:39:20.400Z,10.37
2018-12-19T08:41:48.282Z,9.85
2018-12-19T08:44:15.863Z,9.20
2018-12-19T08:46:43.428Z,9.38
2018-12-19T08:49:11.019Z,9.10
2018-12-19T08:51:38.571Z,9.88
2018-12-19T08:54:06.214Z,9.00
2018-12-19T08:56:33.804Z,9.90
2018-12-19T08:59:01.387Z,9.13
2018-12-19T09:01:28.947Z,9.60
2018-12-19T09:03:56.534Z,8.45
2018-12-19T09:06:24.087Z,9.07
2018-12-19T09:08:51.674Z,9.93
2018-12-19T09:11:19.242Z,11.48
2018-12-19T09:13:46.827Z,8.60
2018-12-19T09:16:14.382Z,9.93
2018-12-19T09:18:41.968Z,8.85
2018-12-19T09:21:09.538Z,9.10
2018-12-19T09:23:37.127Z,8.90
2018-12-19T09:26:04.690Z,11.20
2018-12-19T09:28:32.279Z,8.35
2018-12-19T09:30:59.834Z,9.45
2018-12-19T09:33:27.754Z,8.75
2018-12-19T09:35:55.502Z,8.78
2018-12-19T09:38:23.093Z,8.35
2018-12-19T09:40:50.683Z,10.37
2018-12-19T09:43:18.855Z,10.53
2018-12-19T09:45:46.443Z,11.03
2018-12-19T09:48:14.006Z,9.63
2018-12-19T09:50:41.606Z,11.18
2018-12-19T09:53:09.166Z,11.48
2018-12-19T09:55:36.750Z,10.78
2018-12-19T09:58:04.422Z,10.93
2018-12-19T10:00:31.998Z,11.50
2018-12-19T10:02:59.558Z,12.30
2018-12-19T10:05:27.272Z,11.43
2018-12-19T10:07:54.835Z,12.45
2018-12-19T10:10:22.423Z,11.05
2018-12-19T10:12:49.993Z,11.10
2018-12-19T10:15:17.582Z,12.27
2018-12-19T10:17:45.155Z,12.20
2018-12-19T10:20:12.750Z,10.18
2018-12-19T10:22:41.323Z,10.75
2018-12-19T10:25:13.690Z,11.80
2018-12-19T10:27:41.547Z,9.80
2018-12-19T10:30:11.287Z,11.17
2018-12-19T10:32:39.326Z,10.95
2018-12-19T10:35:08.710Z,8.80
2018-12-19T10:37:36.522Z,9.55
2018-12-19T10:40:07.020Z,10.30
2018-12-19T10:42:34.615Z,9.83
2018-12-19T10:45:02.346Z,10.88
2018-12-19T10:47:30.003Z,8.98
2018-12-19T10:49:57.583Z,10.50
2018-12-19T10:52:25.163Z,8.70
2018-12-19T10:54:52.722Z,9.70
2018-12-19T10:57:20.343Z,9.78
2018-12-19T10:59:47.903Z,9.03
2018-12-19T11:02:15.486Z,8.30
2018-12-19T11:04:44.066Z,8.78
2018-12-19T11:07:11.654Z,12.30
2018-12-19T11:09:39.214Z,10.58
2018-12-19T11:12:06.790Z,9.67
2018-12-19T11:14:34.358Z,11.48
2018-12-19T11:17:02.181Z,9.63
2018-12-19T11:19:29.752Z,10.90
2018-12-19T11:21:57.335Z,11.48
2018-12-19T11:24:25.491Z,9.75
2018-12-19T11:26:53.969Z,8.35
2018-12-19T11:29:21.581Z,8.40
2018-12-19T11:31:49.143Z,9.03
2018-12-19T11:34:16.726Z,10.68
2018-12-19T11:36:44.398Z,11.43
2018-12-19T11:39:11.986Z,9.78
2018-12-19T11:41:39.548Z,15.90
2018-12-19T11:44:07.132Z,11.38
2018-12-19T11:46:34.695Z,11.38
2018-12-19T11:49:02.283Z,13.48
2018-12-19T11:51:29.843Z,10.15
2018-12-19T11:53:57.442Z,10.60
2018-12-19T11:56:24.995Z,13.25
2018-12-19T11:58:52.593Z,12.60
2018-12-19T12:01:20.187Z,14.43
2018-12-19T12:03:47.779Z,16.65
2018-12-19T12:06:15.339Z,16.32
2018-12-19T12:08:42.927Z,16.50
2018-12-19T12:11:10.514Z,16.67
2018-12-19T12:13:38.074Z,16.67
2018-12-19T12:16:05.662Z,17.83
2018-12-19T12:18:33.239Z,14.58
2018-12-19T12:21:00.835Z,15.28
2018-12-19T12:23:29.383Z,13.70
2018-12-19T12:25:56.969Z,16.15
2018-12-19T12:28:24.531Z,13.72
2018-12-19T12:30:52.117Z,13.98
2018-12-19T12:33:19.675Z,14.85
2018-12-19T12:35:47.578Z,17.30
2018-12-19T12:38:15.142Z,13.30
2018-12-19T12:40:42.739Z,16.65
2018-12-19T12:43:10.302Z,13.28
2018-12-19T12:45:37.885Z,16.87
2018-12-19T12:48:05.438Z,14.25
2018-12-19T12:50:33.030Z,22.15
2018-12-19T12:53:01.430Z,18.52
2018-12-19T12:55:28.999Z,17.92
2018-12-19T12:57:56.594Z,17.48
2018-12-19T13:00:24.155Z,16.83
2018-12-19T13:02:51.759Z,18.97
2018-12-19T13:05:21.364Z,17.40
2018-12-19T13:07:48.947Z,15.15
2018-12-19T13:10:16.504Z,15.88
2018-12-19T13:12:44.086Z,15.32
2018-12-19T13:15:13.658Z,13.62
2018-12-19T13:17:41.586Z,14.13
2018-12-19T13:20:09.194Z,17.82
2018-12-19T13:22:37.370Z,15.45
2018-12-19T13:25:05.258Z,14.55
2018-12-19T13:27:32.912Z,15.08
2018-12-19T13:30:00.470Z,20.05
2018-12-19T13:32:28.063Z,14.18
2018-12-19T13:34:55.651Z,15.17
2018-12-19T13:37:23.215Z,14.80
2018-12-19T13:39:50.811Z,17.57
2018-12-19T13:42:18.378Z,22.40
2018-12-19T13:44:46.019Z,20.45
2018-12-19T13:47:13.673Z,16.70
2018-12-19T13:49:41.258Z,16.27
2018-12-19T13:52:09.047Z,14.55
2018-12-19T13:54:36.642Z,16.30
2018-12-19T13:57:04.210Z,13.58
2018-12-19T13:59:31.794Z,14.28
2018-12-19T14:01:59.970Z,13.65
2018-12-19T14:04:27.686Z,15.45
2018-12-19T14:06:55.246Z,13.45
2018-12-19T14:09:22.830Z,15.55
2018-12-19T14:11:50.387Z,11.57
2018-12-19T14:14:17.975Z,12.43
2018-12-19T14:16:45.534Z,15.08
2018-12-19T14:19:13.124Z,13.87
2018-12-19T14:21:40.715Z,13.85
2018-12-19T14:24:08.282Z,13.50
2018-12-19T14:26:35.875Z,11.08
2018-12-19T14:29:03.438Z,14.30
2018-12-19T14:31:31.018Z,17.57
2018-12-19T14:33:58.708Z,14.63
2018-12-19T14:36:26.419Z,14.38
2018-12-19T14:38:54.063Z,13.62
2018-12-19T14:41:21.764Z,12.28
2018-12-19T14:43:49.333Z,13.75
2018-12-19T14:46:16.919Z,11.75
2018-12-19T14:48:44.485Z,10.70
2018-12-19T14:51:12.379Z,11.75
2018-12-19T14:53:40.059Z,11.53
2018-12-19T14:56:07.699Z,11.97
2018-12-19T14:58:35.259Z,11.33
2018-12-19T15:01:02.964Z,15.43
2018-12-19T15:03:30.546Z,11.07
2018-12-19T15:05:58.114Z,13.20
2018-12-19T15:08:25.711Z,16.02
2018-12-19T15:10:53.307Z,12.98
2018-12-19T15:13:20.891Z,13.38
2018-12-19T15:15:50.462Z,18.00
2018-12-19T15:18:18.042Z,12.15
2018-12-19T15:20:45.594Z,10.80
2018-12-19T15:23:13.174Z,14.20
2018-12-19T15:25:40.795Z,12.10
2018-12-19T15:28:08.386Z,12.78
2018-12-19T15:30:35.946Z,13.50
2018-12-19T15:33:03.848Z,12.82
2018-12-19T15:35:31.406Z,14.60
2018-12-19T15:37:58.990Z,12.25
2018-12-19T15:40:26.559Z,10.75
2018-12-19T15:42:54.159Z,12.80
2018-12-19T15:45:21.719Z,11.57
2018-12-19T15:47:49.302Z,15.25
2018-12-19T15:50:16.882Z,15.10
2018-12-19T15:52:44.442Z,14.23
2018-12-19T15:55:12.022Z,13.00
2018-12-19T15:57:39.586Z,16.25
2018-12-19T16:00:09.602Z,13.25
2018-12-19T16:02:37.158Z,13.15
2018-12-19T16:05:05.103Z,12.63
2018-12-19T16:07:32.672Z,13.30
2018-12-19T16:10:00.254Z,12.25
2018-12-19T16:12:27.864Z,17.23
2018-12-19T16:14:55.455Z,14.65
2018-12-19T16:17:23.019Z,15.30
2018-12-19T16:19:50.610Z,13.37
2018-12-19T16:22:18.894Z,15.72
2018-12-19T16:24:46.483Z,14.47
2018-12-19T16:27:14.055Z,14.98
2018-12-19T16:29:41.655Z,15.40
2018-12-19T16:32:09.219Z,15.38
2018-12-19T16:34:36.803Z,16.00
2018-12-19T16:37:04.390Z,14.20
2018-12-19T16:39:32.139Z,12.82
2018-12-19T16:41:59.750Z,15.10
2018-12-19T16:44:27.323Z,14.60
2018-12-19T16:46:54.907Z,14.45
2018-12-19T16:49:22.471Z,14.63
2018-12-19T16:51:50.143Z,15.20
2018-12-19T16:54:19.090Z,17.03
2018-12-19T16:56:46.678Z,14.45
2018-12-19T16:59:14.355Z,16.48
2018-12-19T17:01:41.947Z,14.70
2018-12-19T17:04:09.515Z,14.63
2018-12-19T17:06:37.115Z,18.70
2018-12-19T17:09:06.718Z,14.73
2018-12-19T17:11:34.298Z,14.13
2018-12-19T17:14:01.870Z,13.65
2018-12-19T17:16:29.465Z,13.62
2018-12-19T17:18:57.027Z,15.25
2018-12-19T17:21:24.615Z,17.13
2018-12-19T17:23:52.297Z,16.95
2018-12-19T17:26:19.984Z,16.10
2018-12-19T17:28:47.569Z,16.05
2018-12-19T17:31:15.154Z,15.65
2018-12-19T17:33:42.745Z,16.27
2018-12-19T17:36:10.362Z,15.58
2018-12-19T17:38:37.998Z,15.03
2018-12-19T17:41:08.554Z,16.30
2018-12-19T17:43:36.251Z,15.80
2018-12-19T17:46:03.845Z,14.20
2018-12-19T17:48:31.447Z,16.37
2018-12-19T17:50:59.135Z,14.47
2018-12-19T17:53:27.411Z,14.58
2018-12-19T17:55:54.998Z,14.70
2018-12-19T17:58:23.620Z,15.93
2018-12-19T18:00:51.179Z,13.08
2018-12-19T18:03:18.770Z,17.40
2018-12-19T18:05:46.382Z,15.25
2018-12-19T18:08:13.951Z,14.05
2018-12-19T18:10:41.633Z,15.13
2018-12-19T18:13:09.417Z,16.90
2018-12-19T18:15:37.160Z,16.25
2018-12-19T18:18:04.731Z,16.52
2018-12-19T18:20:32.328Z,16.52
2018-12-19T18:22:59.914Z,14.23
2018-12-19T18:25:27.649Z,14.25
2018-12-19T18:27:55.389Z,14.30
2018-12-19T18:30:23.128Z,11.40
2018-12-19T18:32:50.863Z,11.33
2018-12-19T18:35:18.459Z,12.60
2018-12-19T18:37:46.030Z,12.30
2018-12-19T18:40:13.640Z,12.45
2018-12-19T18:42:41.670Z,11.30
2018-12-19T18:45:11.965Z,12.15
2018-12-19T18:47:39.426Z,12.07
2018-12-19T18:50:07.774Z,12.57
2018-12-19T18:52:36.654Z,11.08
2018-12-19T18:55:05.294Z,10.90
2018-12-19T18:57:33.491Z,10.82
2018-12-19T19:00:01.110Z,12.85
2018-12-19T19:02:29.028Z,12.90
2018-12-19T19:04:56.875Z,11.60
2018-12-19T19:07:24.659Z,11.18
2018-12-19T19:09:52.218Z,11.15
2018-12-19T19:12:20.367Z,10.50
2018-12-19T19:14:48.095Z,9.68
2018-12-19T19:17:15.835Z,10.33
2018-12-19T19:19:43.459Z,10.08
2018-12-19T19:22:11.182Z,11.18
2018-12-19T19:24:39.054Z,11.95
2018-12-19T19:27:06.700Z,13.40
2018-12-19T19:29:34.474Z,10.85
2018-12-19T19:32:02.268Z,12.00
2018-12-19T19:34:29.990Z,13.62
2018-12-19T19:36:57.618Z,11.50
2018-12-19T19:39:25.333Z,11.65
2018-12-19T19:41:52.928Z,11.85
2018-12-19T19:44:20.542Z,11.57
2018-12-19T19:46:48.230Z,11.48
2018-12-19T19:49:16.098Z,15.32
2018-12-19T19:51:43.811Z,17.73
2018-12-19T19:54:11.523Z,18.07
2018-12-19T19:56:39.148Z,17.60
2018-12-19T19:59:06.854Z,19.00
2018-12-19T20:01:34.456Z,18.30
2018-12-19T20:04:02.191Z,18.73
2018-12-19T20:06:29.838Z,17.13
2018-12-19T20:08:57.626Z,16.77
2018-12-19T20:11:25.255Z,18.48
2018-12-19T20:13:52.891Z,19.15
2018-12-19T20:16:20.533Z,15.98
2018-12-19T20:18:48.127Z,16.25
2018-12-19T20:21:15.934Z,16.10
2018-12-19T20:23:43.522Z,16.55
2018-12-19T20:26:11.127Z,16.65
2018-12-19T20:28:38.888Z,17.15
2018-12-19T20:31:07.179Z,19.57
2018-12-19T20:33:35.171Z,16.15
2018-12-19T20:36:03.200Z,17.70
2018-12-19T20:38:30.867Z,17.48
2018-12-19T20:40:58.766Z,18.75
2018-12-19T20:43:26.379Z,19.82
2018-12-19T20:45:54.367Z,18.65
2018-12-19T20:48:22.314Z,18.48
2018-12-19T20:50:50.967Z,17.77
2018-12-19T20:53:18.575Z,19.90
2018-12-19T20:55:46.538Z,21.90
2018-12-19T20:58:14.388Z,22.42
2018-12-19T21:00:42.477Z,20.02
2018-12-19T21:03:10.151Z,20.50
2018-12-19T21:05:37.750Z,22.75
2018-12-19T21:08:05.318Z,23.87
2018-12-19T21:10:33.520Z,23.73
2018-12-19T21:13:01.194Z,22.73
2018-12-19T21:15:28.763Z,23.87
2018-12-19T21:20:59.742Z,22.73
2018-12-19T21:23:27.348Z,24.00
2018-12-19T21:25:54.915Z,23.55
2018-12-19T21:28:22.513Z,21.77
2018-12-19T21:30:50.074Z,23.50
2018-12-19T21:33:17.715Z,24.77
2018-12-19T21:35:45.814Z,23.12
2018-12-19T21:38:13.404Z,24.60
2018-12-19T21:40:40.986Z,25.60
2018-12-19T21:43:08.618Z,24.95
2018-12-19T21:45:36.249Z,24.80
2018-12-19T21:48:03.977Z,23.65
2018-12-19T21:50:31.658Z,23.20
2018-12-19T21:52:59.329Z,23.65
2018-12-19T21:55:26.895Z,23.02
2018-12-19T21:57:54.482Z,22.95
2018-12-19T22:00:24.090Z,21.02
2018-12-19T22:05:34.484Z,21.12
2018-12-19T22:08:02.330Z,22.50
2018-12-19T22:10:30.082Z,21.48
2018-12-19T22:12:57.806Z,21.27
2018-12-19T22:15:25.481Z,21.50
2018-12-19T22:17:55.190Z,21.48
2018-12-19T22:20:22.828Z,21.40
2018-12-19T22:22:50.555Z,21.05
2018-12-19T22:25:18.354Z,20.32
2018-12-19T22:27:46.037Z,20.30
2018-12-19T22:30:13.645Z,21.27
2018-12-19T22:32:41.215Z,19.48
2018-12-19T22:35:08.911Z,21.37
2018-12-19T22:37:36.478Z,18.30
2018-12-19T22:40:07.227Z,18.73
2018-12-19T22:42:34.815Z,20.45
2018-12-19T22:45:02.719Z,18.40
2018-12-19T22:47:30.444Z,18.85
2018-12-19T22:49:58.024Z,19.37
2018-12-19T22:52:25.610Z,18.42
2018-12-19T22:54:53.189Z,20.70
2018-12-19T22:57:20.791Z,18.47
2018-12-19T22:59:48.445Z,18.67
2018-12-19T23:02:21.871Z,18.62
2018-12-19T23:04:49.639Z,18.23
2018-12-19T23:07:17.268Z,18.70
2018-12-19T23:09:44.886Z,20.08
2018-12-19T23:12:12.583Z,19.35
2018-12-19T23:14:40.244Z,18.95
2018-12-19T23:17:13.624Z,22.20
2018-12-19T23:19:41.323Z,22.83
2018-12-19T23:22:09.035Z,19.48
2018-12-19T23:24:36.591Z,20.60
2018-12-19T23:27:04.149Z,22.05
2018-12-19T23:29:31.805Z,20.50
2018-12-19T23:31:59.435Z,20.93
2018-12-19T23:34:27.183Z,21.05
2018-12-19T23:36:54.850Z,19.65
2018-12-19T23:39:23.242Z,20.08
2018-12-19T23:41:50.810Z,19.80
2018-12-19T23:44:22.606Z,20.13
2018-12-19T23:46:50.255Z,18.73
2018-12-19T23:49:17.975Z,18.67
2018-12-19T23:51:45.535Z,20.62
2018-12-19T23:54:13.687Z,18.73
2018-12-19T23:56:41.320Z,15.95
2018-12-19T23:59:08.970Z,18.25
